sensor_id;sensor_type;location;lat;lon;timestamp;pressure;altitude;pressure_sealevel;temperature;humidity
7337;BME280;54510;42.016;23.098;2022-11-25T00:02:17;-21519.50;;;14.01;45.05
7337;BME280;54510;42.016;23.098;2022-11-25T00:04:42;-21516.88;;;13.92;45.64
7337;BME280;54510;42.016;23.098;2022-11-25T00:07:08;-21514.38;;;13.82;46.16
7337;BME280;54510;42.016;23.098;2022-11-25T00:09:33;-21525.16;;;14.22;45.25
7337;BME280;54510;42.016;23.098;2022-11-25T00:11:58;-21528.19;;;14.33;45.28
7337;BME280;54510;42.016;23.098;2022-11-25T00:14:24;-21519.63;;;14.02;45.29
7337;BME280;54510;42.016;23.098;2022-11-25T00:16:49;-21521.41;;;14.08;45.65
7337;BME280;54510;42.016;23.098;2022-11-25T00:19:15;-21527.66;;;14.31;44.78
7337;BME280;54510;42.016;23.098;2022-11-25T00:21:41;-21530.53;;;14.42;44.86
7337;BME280;54510;42.016;23.098;2022-11-25T00:24:06;-21531.25;;;14.44;44.69
7337;BME280;54510;42.016;23.098;2022-11-25T00:26:34;-21531.25;;;14.44;44.57
7337;BME280;54510;42.016;23.098;2022-11-25T00:29:02;-21530.97;;;14.43;44.99
7337;BME280;54510;42.016;23.098;2022-11-25T00:31:30;-21528.59;;;14.35;45.07
7337;BME280;54510;42.016;23.098;2022-11-25T00:33:56;-21528.34;;;14.34;45.09
7337;BME280;54510;42.016;23.098;2022-11-25T00:36:24;-21522.81;;;14.13;45.54
7337;BME280;54510;42.016;23.098;2022-11-25T00:38:55;-21528.34;;;14.34;45.33
7337;BME280;54510;42.016;23.098;2022-11-25T00:41:21;-21524.88;;;14.21;45.51
7337;BME280;54510;42.016;23.098;2022-11-25T00:44:08;-21527.78;;;14.32;45.68
7337;BME280;54510;42.016;23.098;2022-11-25T00:46:52;-21524.75;;;14.20;45.73
7337;BME280;54510;42.016;23.098;2022-11-25T00:49:18;-21521.69;;;14.09;45.47
7337;BME280;54510;42.016;23.098;2022-11-25T00:51:43;-21519.50;;;14.01;46.53
7337;BME280;54510;42.016;23.098;2022-11-25T00:54:08;-21519.75;;;14.02;46.10
7337;BME280;54510;42.016;23.098;2022-11-25T00:56:34;-21520.47;;;14.05;46.64
7337;BME280;54510;42.016;23.098;2022-11-25T00:58:59;-21527.66;;;14.31;45.96
7337;BME280;54510;42.016;23.098;2022-11-25T01:01:25;-21511.34;;;13.71;47.08
7337;BME280;54510;42.016;23.098;2022-11-25T01:03:51;-21513.81;;;13.80;46.74
7337;BME280;54510;42.016;23.098;2022-11-25T01:06:17;-21510.22;;;13.67;46.74
7337;BME280;54510;42.016;23.098;2022-11-25T01:08:42;-21511.88;;;13.73;46.71
7337;BME280;54510;42.016;23.098;2022-11-25T01:11:11;-21524.31;;;14.19;46.41
7337;BME280;54510;42.016;23.098;2022-11-25T01:13:37;-21522.13;;;14.11;46.15
7337;BME280;54510;42.016;23.098;2022-11-25T01:16:04;-21529.16;;;14.37;45.95
7337;BME280;54510;42.016;23.098;2022-11-25T01:18:30;-21522.53;;;14.12;45.87
7337;BME280;54510;42.016;23.098;2022-11-25T01:21:32;-21520.31;;;14.04;46.19
7337;BME280;54510;42.016;23.098;2022-11-25T01:23:59;-21511.47;;;13.72;47.18
7337;BME280;54510;42.016;23.098;2022-11-25T01:26:26;-21513.00;;;13.77;46.86
7337;BME280;54510;42.016;23.098;2022-11-25T01:28:55;-21514.66;;;13.83;47.07
7337;BME280;54510;42.016;23.098;2022-11-25T01:31:23;-21515.91;;;13.88;46.81
7337;BME280;54510;42.016;23.098;2022-11-25T01:34:01;-21524.47;;;14.19;46.29
7337;BME280;54510;42.016;23.098;2022-11-25T01:36:27;-21524.59;;;14.20;46.30
7337;BME280;54510;42.016;23.098;2022-11-25T01:38:55;-21521.56;;;14.09;46.40
7337;BME280;54510;42.016;23.098;2022-11-25T01:41:22;-21520.72;;;14.06;45.96
7337;BME280;54510;42.016;23.098;2022-11-25T01:46:45;-21533.88;;;14.54;45.50
7337;BME280;54510;42.016;23.098;2022-11-25T01:49:19;-21529.44;;;14.38;45.49
7337;BME280;54510;42.016;23.098;2022-11-25T01:51:57;-21525.97;;;14.25;45.88
7337;BME280;54510;42.016;23.098;2022-11-25T01:54:28;-21523.63;;;14.16;46.23
7337;BME280;54510;42.016;23.098;2022-11-25T01:57:11;-21518.38;;;13.97;46.33
7337;BME280;54510;42.016;23.098;2022-11-25T01:59:40;-21525.97;;;14.25;46.00
7337;BME280;54510;42.016;23.098;2022-11-25T02:02:09;-21523.22;;;14.15;46.05
7337;BME280;54510;42.016;23.098;2022-11-25T02:04:38;-21519.06;;;14.00;46.46
7337;BME280;54510;42.016;23.098;2022-11-25T02:07:09;-21513.00;;;13.77;46.98
7337;BME280;54510;42.016;23.098;2022-11-25T02:09:40;-21514.78;;;13.84;47.11
7337;BME280;54510;42.016;23.098;2022-11-25T02:12:06;-21518.53;;;13.98;46.21
7337;BME280;54510;42.016;23.098;2022-11-25T02:14:33;-21523.63;;;14.16;46.23
7337;BME280;54510;42.016;23.098;2022-11-25T02:16:59;-21519.50;;;14.01;46.61
7337;BME280;54510;42.016;23.098;2022-11-25T02:20:00;-21519.91;;;14.03;46.59
7337;BME280;54510;42.016;23.098;2022-11-25T02:27:47;-21517.97;;;13.96;46.75
7337;BME280;54510;42.016;23.098;2022-11-25T02:30:13;-21519.91;;;14.03;46.05
7337;BME280;54510;42.016;23.098;2022-11-25T02:32:44;-21516.31;;;13.90;46.52
7337;BME280;54510;42.016;23.098;2022-11-25T02:38:32;-21518.53;;;13.98;46.23
7337;BME280;54510;42.016;23.098;2022-11-25T02:41:11;-21517.81;;;13.95;46.07
7337;BME280;54510;42.016;23.098;2022-11-25T02:43:38;-21517.13;;;13.93;46.49
7337;BME280;54510;42.016;23.098;2022-11-25T02:46:09;-21518.09;;;13.96;46.25
7337;BME280;54510;42.016;23.098;2022-11-25T02:48:37;-21518.53;;;13.98;46.09
7337;BME280;54510;42.016;23.098;2022-11-25T02:51:04;-21516.16;;;13.89;46.32
7337;BME280;54510;42.016;23.098;2022-11-25T02:53:30;-21506.63;;;13.54;47.01
7337;BME280;54510;42.016;23.098;2022-11-25T02:55:56;-21509.94;;;13.66;47.12
7337;BME280;54510;42.016;23.098;2022-11-25T02:58:21;-21510.78;;;13.69;46.94
7337;BME280;54510;42.016;23.098;2022-11-25T03:00:47;-21509.41;;;13.64;47.15
7337;BME280;54510;42.016;23.098;2022-11-25T03:03:13;-21504.41;;;13.46;47.58
7337;BME280;54510;42.016;23.098;2022-11-25T03:05:39;-21508.56;;;13.61;47.28
7337;BME280;54510;42.016;23.098;2022-11-25T03:08:05;-21509.81;;;13.66;47.07
7337;BME280;54510;42.016;23.098;2022-11-25T03:10:30;-21498.59;;;13.25;48.07
7337;BME280;54510;42.016;23.098;2022-11-25T03:12:56;-21508.16;;;13.60;47.70
7337;BME280;54510;42.016;23.098;2022-11-25T03:15:22;-21502.91;;;13.40;47.80
7337;BME280;54510;42.016;23.098;2022-11-25T03:17:47;-21510.22;;;13.67;47.35
7337;BME280;54510;42.016;23.098;2022-11-25T03:20:13;-21509.41;;;13.64;47.53
7337;BME280;54510;42.016;23.098;2022-11-25T03:22:42;-21515.75;;;13.88;47.15
7337;BME280;54510;42.016;23.098;2022-11-25T03:25:10;-21523.22;;;14.15;46.52
7337;BME280;54510;42.016;23.098;2022-11-25T03:27:36;-21516.88;;;13.92;46.70
7337;BME280;54510;42.016;23.098;2022-11-25T03:30:03;-21514.78;;;13.84;46.78
7337;BME280;54510;42.016;23.098;2022-11-25T03:32:29;-21515.34;;;13.86;46.69
7337;BME280;54510;42.016;23.098;2022-11-25T03:34:54;-21508.97;;;13.63;45.81
7337;BME280;54510;42.016;23.098;2022-11-25T03:37:20;-21511.19;;;13.71;45.06
7337;BME280;54510;42.016;23.098;2022-11-25T03:39:45;-21513.00;;;13.77;43.98
7337;BME280;54510;42.016;23.098;2022-11-25T03:42:10;-21514.38;;;13.82;43.58
7337;BME280;54510;42.016;23.098;2022-11-25T03:44:36;-21513.81;;;13.80;43.78
7337;BME280;54510;42.016;23.098;2022-11-25T03:47:02;-21511.06;;;13.70;43.52
7337;BME280;54510;42.016;23.098;2022-11-25T03:49:28;-21508.44;;;13.61;43.71
7337;BME280;54510;42.016;23.098;2022-11-25T03:51:53;-21516.03;;;13.89;43.10
7337;BME280;54510;42.016;23.098;2022-11-25T03:54:18;-21520.47;;;14.05;43.12
7337;BME280;54510;42.016;23.098;2022-11-25T03:56:44;-21521.28;;;14.08;43.14
7337;BME280;54510;42.016;23.098;2022-11-25T03:59:10;-21521.84;;;14.10;42.71
7337;BME280;54510;42.016;23.098;2022-11-25T04:01:35;-21518.94;;;13.99;42.97
7337;BME280;54510;42.016;23.098;2022-11-25T04:04:02;-21518.53;;;13.98;42.90
7337;BME280;54510;42.016;23.098;2022-11-25T04:06:27;-21521.56;;;14.09;42.94
7337;BME280;54510;42.016;23.098;2022-11-25T04:08:52;-21520.03;;;14.03;42.97
7337;BME280;54510;42.016;23.098;2022-11-25T04:11:18;-21525.44;;;14.23;42.78
7337;BME280;54510;42.016;23.098;2022-11-25T04:13:43;-21516.44;;;13.90;43.17
7337;BME280;54510;42.016;23.098;2022-11-25T04:16:38;-21523.22;;;14.15;42.86
7337;BME280;54510;42.016;23.098;2022-11-25T04:19:03;-21527.66;;;14.31;42.59
7337;BME280;54510;42.016;23.098;2022-11-25T04:21:29;-21532.06;;;14.47;42.56
7337;BME280;54510;42.016;23.098;2022-11-25T04:23:55;-21530.41;;;14.41;42.72
7337;BME280;54510;42.016;23.098;2022-11-25T04:26:21;-21522.13;;;14.11;43.40
7337;BME280;54510;42.016;23.098;2022-11-25T04:28:46;-21520.03;;;14.03;44.54
7337;BME280;54510;42.016;23.098;2022-11-25T04:31:12;-21522.41;;;14.12;44.91
7337;BME280;54510;42.016;23.098;2022-11-25T04:33:37;-21520.03;;;14.03;45.54
7337;BME280;54510;42.016;23.098;2022-11-25T04:36:02;-21522.13;;;14.11;45.60
7337;BME280;54510;42.016;23.098;2022-11-25T04:38:28;-21511.59;;;13.72;46.50
7337;BME280;54510;42.016;23.098;2022-11-25T04:40:53;-21507.19;;;13.56;46.94
7337;BME280;54510;42.016;23.098;2022-11-25T04:43:19;-21501.66;;;13.36;47.35
7337;BME280;54510;42.016;23.098;2022-11-25T04:45:46;-21508.28;;;13.60;47.28
7337;BME280;54510;42.016;23.098;2022-11-25T04:48:12;-21499.72;;;13.29;47.56
7337;BME280;54510;42.016;23.098;2022-11-25T04:50:38;-21506.91;;;13.55;47.20
7337;BME280;54510;42.016;23.098;2022-11-25T04:53:03;-21506.22;;;13.53;46.95
7337;BME280;54510;42.016;23.098;2022-11-25T04:55:29;-21505.94;;;13.52;47.21
7337;BME280;54510;42.016;23.098;2022-11-25T04:57:55;-21504.69;;;13.47;47.16
7337;BME280;54510;42.016;23.098;2022-11-25T05:00:21;-21508.56;;;13.61;46.95
7337;BME280;54510;42.016;23.098;2022-11-25T05:02:46;-21500.97;;;13.33;47.32
7337;BME280;54510;42.016;23.098;2022-11-25T05:05:12;-21501.50;;;13.35;47.23
7337;BME280;54510;42.016;23.098;2022-11-25T05:07:37;-21508.00;;;13.59;47.17
7337;BME280;54510;42.016;23.098;2022-11-25T05:10:04;-21500.53;;;13.32;47.68
7337;BME280;54510;42.016;23.098;2022-11-25T05:12:30;-21510.22;;;13.67;46.90
7337;BME280;54510;42.016;23.098;2022-11-25T05:14:56;-21505.53;;;13.50;47.10
7337;BME280;54510;42.016;23.098;2022-11-25T05:17:25;-21504.41;;;13.46;46.74
7337;BME280;54510;42.016;23.098;2022-11-25T05:19:52;-21508.28;;;13.60;46.63
7337;BME280;54510;42.016;23.098;2022-11-25T05:22:22;-21498.06;;;13.23;46.53
7337;BME280;54510;42.016;23.098;2022-11-25T05:24:48;-21498.31;;;13.24;46.40
7337;BME280;54510;42.016;23.098;2022-11-25T05:27:14;-21504.41;;;13.46;46.19
7337;BME280;54510;42.016;23.098;2022-11-25T05:29:40;-21506.78;;;13.55;46.08
7337;BME280;54510;42.016;23.098;2022-11-25T05:32:06;-21503.31;;;13.42;46.34
7337;BME280;54510;42.016;23.098;2022-11-25T05:34:31;-21511.59;;;13.72;45.49
7337;BME280;54510;42.016;23.098;2022-11-25T05:36:57;-21518.38;;;13.97;45.43
7337;BME280;54510;42.016;23.098;2022-11-25T05:39:22;-21519.22;;;14.00;45.32
7337;BME280;54510;42.016;23.098;2022-11-25T05:41:48;-21507.31;;;13.57;45.48
7337;BME280;54510;42.016;23.098;2022-11-25T05:44:13;-21499.84;;;13.29;45.40
7337;BME280;54510;42.016;23.098;2022-11-25T05:46:39;-21511.59;;;13.72;45.03
7337;BME280;54510;42.016;23.098;2022-11-25T05:49:04;-21518.81;;;13.99;44.47
7337;BME280;54510;42.016;23.098;2022-11-25T05:51:29;-21518.25;;;13.97;44.48
7337;BME280;54510;42.016;23.098;2022-11-25T05:53:55;-21513.81;;;13.80;45.04
7337;BME280;54510;42.016;23.098;2022-11-25T05:56:21;-21509.81;;;13.66;45.39
7337;BME280;54510;42.016;23.098;2022-11-25T05:58:47;-21507.47;;;13.57;46.84
7337;BME280;54510;42.016;23.098;2022-11-25T06:01:14;-21506.22;;;13.53;47.18
7337;BME280;54510;42.016;23.098;2022-11-25T06:03:40;-21505.78;;;13.51;47.41
7337;BME280;54510;42.016;23.098;2022-11-25T06:06:07;-21514.09;;;13.81;46.70
7337;BME280;54510;42.016;23.098;2022-11-25T06:08:34;-21502.47;;;13.39;47.14
7337;BME280;54510;42.016;23.098;2022-11-25T06:11:07;-21509.94;;;13.66;45.82
7337;BME280;54510;42.016;23.098;2022-11-25T06:13:33;-21500.41;;;13.31;45.30
7337;BME280;54510;42.016;23.098;2022-11-25T06:15:59;-21507.72;;;13.58;45.07
7337;BME280;54510;42.016;23.098;2022-11-25T06:18:24;-21503.88;;;13.44;44.95
7337;BME280;54510;42.016;23.098;2022-11-25T06:20:57;-21511.19;;;13.71;44.51
7337;BME280;54510;42.016;23.098;2022-11-25T06:23:24;-21513.25;;;13.78;44.35
7337;BME280;54510;42.016;23.098;2022-11-25T06:25:50;-21517.81;;;13.95;44.18
7337;BME280;54510;42.016;23.098;2022-11-25T06:28:15;-21511.19;;;13.71;44.48
7337;BME280;54510;42.016;23.098;2022-11-25T06:30:41;-21512.56;;;13.76;44.18
7337;BME280;54510;42.016;23.098;2022-11-25T06:33:06;-21510.78;;;13.69;44.49
7337;BME280;54510;42.016;23.098;2022-11-25T06:35:32;-21517.41;;;13.94;44.37
7337;BME280;54510;42.016;23.098;2022-11-25T06:37:58;-21513.13;;;13.78;44.53
7337;BME280;54510;42.016;23.098;2022-11-25T06:40:24;-21508.00;;;13.59;44.74
7337;BME280;54510;42.016;23.098;2022-11-25T06:42:49;-21521.84;;;14.10;43.47
7337;BME280;54510;42.016;23.098;2022-11-25T06:45:15;-21520.47;;;14.05;43.68
7337;BME280;54510;42.016;23.098;2022-11-25T06:47:40;-21514.38;;;13.82;43.56
7337;BME280;54510;42.016;23.098;2022-11-25T06:50:06;-21513.69;;;13.80;43.36
7337;BME280;54510;42.016;23.098;2022-11-25T06:52:32;-21521.00;;;14.07;43.03
7337;BME280;54510;42.016;23.098;2022-11-25T06:54:57;-21524.06;;;14.18;42.58
7337;BME280;54510;42.016;23.098;2022-11-25T06:57:23;-21514.38;;;13.82;43.52
7337;BME280;54510;42.016;23.098;2022-11-25T06:59:48;-21500.81;;;13.33;44.05
7337;BME280;54510;42.016;23.098;2022-11-25T07:02:15;-21512.44;;;13.75;43.09
7337;BME280;54510;42.016;23.098;2022-11-25T07:04:40;-21505.25;;;13.49;43.37
7337;BME280;54510;42.016;23.098;2022-11-25T07:07:06;-21514.09;;;13.81;43.11
7337;BME280;54510;42.016;23.098;2022-11-25T07:09:32;-21506.50;;;13.54;43.73
7337;BME280;54510;42.016;23.098;2022-11-25T07:11:58;-21507.72;;;13.58;43.38
7337;BME280;54510;42.016;23.098;2022-11-25T07:14:23;-21509.94;;;13.66;43.22
7337;BME280;54510;42.016;23.098;2022-11-25T07:16:48;-21522.41;;;14.12;42.38
7337;BME280;54510;42.016;23.098;2022-11-25T07:19:15;-21523.78;;;14.17;42.44
7337;BME280;54510;42.016;23.098;2022-11-25T07:21:41;-21533.19;;;14.51;42.26
7337;BME280;54510;42.016;23.098;2022-11-25T07:24:14;-21533.44;;;14.52;41.91
7337;BME280;54510;42.016;23.098;2022-11-25T07:26:41;-21534.56;;;14.56;41.80
7337;BME280;54510;42.016;23.098;2022-11-25T07:29:10;-21537.44;;;14.67;41.14
7337;BME280;54510;42.016;23.098;2022-11-25T07:31:38;-21527.50;;;14.31;41.23
7337;BME280;54510;42.016;23.098;2022-11-25T07:34:06;-21529.44;;;14.38;41.54
7337;BME280;54510;42.016;23.098;2022-11-25T07:36:34;-21528.06;;;14.33;40.58
7337;BME280;54510;42.016;23.098;2022-11-25T07:39:04;-21534.69;;;14.57;40.42
7337;BME280;54510;42.016;23.098;2022-11-25T07:41:29;-21538.69;;;14.72;40.14
7337;BME280;54510;42.016;23.098;2022-11-25T07:43:58;-21533.44;;;14.52;40.38
7337;BME280;54510;42.016;23.098;2022-11-25T07:46:25;-21536.75;;;14.65;40.04
7337;BME280;54510;42.016;23.098;2022-11-25T07:48:52;-21542.56;;;14.86;39.36
7337;BME280;54510;42.016;23.098;2022-11-25T07:51:21;-21538.69;;;14.72;39.77
7337;BME280;54510;42.016;23.098;2022-11-25T07:53:48;-21549.31;;;15.11;39.36
7337;BME280;54510;42.016;23.098;2022-11-25T07:56:14;-21546.16;;;14.99;38.69
7337;BME280;54510;42.016;23.098;2022-11-25T07:58:41;-21553.75;;;15.27;38.44
7337;BME280;54510;42.016;23.098;2022-11-25T08:01:08;-21555.53;;;15.33;38.72
7337;BME280;54510;42.016;23.098;2022-11-25T08:03:36;-21547.69;;;15.05;38.67
7337;BME280;54510;42.016;23.098;2022-11-25T08:06:07;-21553.59;;;15.26;38.62
7337;BME280;54510;42.016;23.098;2022-11-25T08:08:35;-21550.56;;;15.15;38.50
7337;BME280;54510;42.016;23.098;2022-11-25T08:11:05;-21557.19;;;15.39;38.11
7337;BME280;54510;42.016;23.098;2022-11-25T08:13:30;-21543.53;;;14.89;38.48
7337;BME280;54510;42.016;23.098;2022-11-25T08:15:58;-21549.47;;;15.11;38.84
7337;BME280;54510;42.016;23.098;2022-11-25T08:18:23;-21551.69;;;15.19;38.42
7337;BME280;54510;42.016;23.098;2022-11-25T08:20:49;-21542.56;;;14.86;39.05
7337;BME280;54510;42.016;23.098;2022-11-25T08:23:14;-21537.03;;;14.66;39.52
7337;BME280;54510;42.016;23.098;2022-11-25T08:25:40;-21526.81;;;14.28;39.96
7337;BME280;54510;42.016;23.098;2022-11-25T08:28:06;-21545.47;;;14.96;38.70
7337;BME280;54510;42.016;23.098;2022-11-25T08:30:31;-21552.50;;;15.22;38.03
7337;BME280;54510;42.016;23.098;2022-11-25T08:32:57;-21561.63;;;15.56;38.25
7337;BME280;54510;42.016;23.098;2022-11-25T08:35:23;-21561.34;;;15.55;38.18
7337;BME280;54510;42.016;23.098;2022-11-25T08:37:48;-21545.59;;;14.97;38.50
7337;BME280;54510;42.016;23.098;2022-11-25T08:40:14;-21549.59;;;15.12;38.49
7337;BME280;54510;42.016;23.098;2022-11-25T08:42:39;-21564.50;;;15.66;38.00
7337;BME280;54510;42.016;23.098;2022-11-25T08:45:06;-21552.91;;;15.24;37.87
7337;BME280;54510;42.016;23.098;2022-11-25T08:47:32;-21556.50;;;15.37;37.73
7337;BME280;54510;42.016;23.098;2022-11-25T08:49:57;-21558.31;;;15.43;37.78
7337;BME280;54510;42.016;23.098;2022-11-25T08:52:23;-21550.72;;;15.16;38.38
7337;BME280;54510;42.016;23.098;2022-11-25T08:54:48;-21543.13;;;14.88;39.30
7337;BME280;54510;42.016;23.098;2022-11-25T08:57:15;-21547.25;;;15.03;38.31
7337;BME280;54510;42.016;23.098;2022-11-25T08:59:41;-21549.31;;;15.11;38.55
7337;BME280;54510;42.016;23.098;2022-11-25T09:02:07;-21555.81;;;15.34;38.09
7337;BME280;54510;42.016;23.098;2022-11-25T09:04:34;-21550.03;;;15.13;38.00
7337;BME280;54510;42.016;23.098;2022-11-25T09:07:00;-21541.72;;;14.83;38.74
7337;BME280;54510;42.016;23.098;2022-11-25T09:09:27;-21551.13;;;15.17;38.35
7337;BME280;54510;42.016;23.098;2022-11-25T09:11:53;-21563.00;;;15.61;37.72
7337;BME280;54510;42.016;23.098;2022-11-25T09:14:18;-21568.50;;;15.81;37.21
7337;BME280;54510;42.016;23.098;2022-11-25T09:16:43;-21548.63;;;15.08;37.86
7337;BME280;54510;42.016;23.098;2022-11-25T09:19:09;-21567.00;;;15.75;37.32
7337;BME280;54510;42.016;23.098;2022-11-25T09:21:34;-21567.41;;;15.77;36.75
7337;BME280;54510;42.016;23.098;2022-11-25T09:23:59;-21568.66;;;15.82;37.07
7337;BME280;54510;42.016;23.098;2022-11-25T09:26:28;-21577.88;;;16.15;37.20
7337;BME280;54510;42.016;23.098;2022-11-25T09:28:54;-21582.28;;;16.32;36.46
7337;BME280;54510;42.016;23.098;2022-11-25T09:31:20;-21572.66;;;15.96;37.03
7337;BME280;54510;42.016;23.098;2022-11-25T09:33:46;-21561.19;;;15.54;37.06
7337;BME280;54510;42.016;23.098;2022-11-25T09:36:13;-21563.69;;;15.63;37.15
7337;BME280;54510;42.016;23.098;2022-11-25T09:38:40;-21575.69;;;16.07;36.90
7337;BME280;54510;42.016;23.098;2022-11-25T09:44:15;-21550.44;;;15.15;38.20
7337;BME280;54510;42.016;23.098;2022-11-25T09:49:47;-21574.84;;;16.04;37.02
7337;BME280;54510;42.016;23.098;2022-11-25T09:55:39;-21558.72;;;15.45;37.63
7337;BME280;54510;42.016;23.098;2022-11-25T09:58:21;-21559.81;;;15.49;37.44
7337;BME280;54510;42.016;23.098;2022-11-25T10:00:50;-21579.00;;;16.19;36.78
7337;BME280;54510;42.016;23.098;2022-11-25T10:03:41;-21574.59;;;16.03;37.47
7337;BME280;54510;42.016;23.098;2022-11-25T10:08:45;-21571.28;;;15.91;37.02
7337;BME280;54510;42.016;23.098;2022-11-25T10:11:24;-21562.72;;;15.60;37.04
7337;BME280;54510;42.016;23.098;2022-11-25T10:20:20;-21574.84;;;16.04;36.90
7337;BME280;54510;42.016;23.098;2022-11-25T10:22:23;-21577.06;;;16.12;36.95
7337;BME280;54510;42.016;23.098;2022-11-25T10:24:51;-21576.91;;;16.12;36.70
7337;BME280;54510;42.016;23.098;2022-11-25T10:27:22;-21587.53;;;16.51;36.03
7337;BME280;54510;42.016;23.098;2022-11-25T10:29:55;-21584.50;;;16.40;36.07
7337;BME280;54510;42.016;23.098;2022-11-25T10:32:28;-21592.50;;;16.69;36.60
7337;BME280;54510;42.016;23.098;2022-11-25T10:35:03;-21603.38;;;17.09;35.42
7337;BME280;54510;42.016;23.098;2022-11-25T10:37:39;-21590.72;;;16.63;36.31
7337;BME280;54510;42.016;23.098;2022-11-25T10:40:25;-21603.66;;;17.10;35.62
7337;BME280;54510;42.016;23.098;2022-11-25T10:42:51;-21594.72;;;16.77;35.75
7337;BME280;54510;42.016;23.098;2022-11-25T10:45:21;-21606.41;;;17.20;35.78
7337;BME280;54510;42.016;23.098;2022-11-25T10:53:20;-21590.28;;;16.61;36.73
7337;BME280;54510;42.016;23.098;2022-11-25T10:56:01;-21584.50;;;16.40;36.31
7337;BME280;54510;42.016;23.098;2022-11-25T10:58:29;-21595.25;;;16.79;35.99
7337;BME280;54510;42.016;23.098;2022-11-25T11:01:05;-21595.53;;;16.80;35.91
7337;BME280;54510;42.016;23.098;2022-11-25T11:03:31;-21586.03;;;16.45;36.87
7337;BME280;54510;42.016;23.098;2022-11-25T11:05:57;-21575.97;;;16.08;36.79
7337;BME280;54510;42.016;23.098;2022-11-25T11:08:25;-21594.44;;;16.76;36.52
7337;BME280;54510;42.016;23.098;2022-11-25T11:11:15;-21605.44;;;17.17;35.52
7337;BME280;54510;42.016;23.098;2022-11-25T11:13:41;-21596.91;;;16.85;36.08
7337;BME280;54510;42.016;23.098;2022-11-25T11:16:35;-21610.13;;;17.34;34.98
7337;BME280;54510;42.016;23.098;2022-11-25T11:19:01;-21606.97;;;17.22;35.26
7337;BME280;54510;42.016;23.098;2022-11-25T11:21:30;-21598.97;;;16.93;35.63
7337;BME280;54510;42.016;23.098;2022-11-25T11:23:57;-21589.75;;;16.59;36.20
7337;BME280;54510;42.016;23.098;2022-11-25T11:26:32;-21581.75;;;16.30;36.47
7337;BME280;54510;42.016;23.098;2022-11-25T11:31:31;-21574.31;;;16.02;36.92
7337;BME280;54510;42.016;23.098;2022-11-25T11:39:51;-21586.44;;;16.47;36.46
7337;BME280;54510;42.016;23.098;2022-11-25T11:48:48;-21598.16;;;16.90;36.16
7337;BME280;54510;42.016;23.098;2022-11-25T11:56:35;-21579.00;;;16.19;37.59
7337;BME280;54510;42.016;23.098;2022-11-25T12:04:36;-21569.06;;;15.83;38.00
7337;BME280;54510;42.016;23.098;2022-11-25T12:07:27;-21573.88;;;16.01;38.11
7337;BME280;54510;42.016;23.098;2022-11-25T12:10:01;-21573.06;;;15.98;38.01
7337;BME280;54510;42.016;23.098;2022-11-25T12:18:42;-21572.66;;;15.96;38.25
7337;BME280;54510;42.016;23.098;2022-11-25T12:24:21;-21576.25;;;16.09;37.94
7337;BME280;54510;42.016;23.098;2022-11-25T12:29:30;-21587.94;;;16.52;37.66
7337;BME280;54510;42.016;23.098;2022-11-25T12:37:54;-21583.81;;;16.37;37.26
7337;BME280;54510;42.016;23.098;2022-11-25T12:46:12;-21563.41;;;15.62;37.61
7337;BME280;54510;42.016;23.098;2022-11-25T12:48:41;-21575.53;;;16.07;37.77
7337;BME280;54510;42.016;23.098;2022-11-25T12:54:14;-21586.16;;;16.46;36.69
7337;BME280;54510;42.016;23.098;2022-11-25T13:02:41;-21583.25;;;16.35;37.56
7337;BME280;54510;42.016;23.098;2022-11-25T13:16:23;-21562.72;;;15.60;38.54
7337;BME280;54510;42.016;23.098;2022-11-25T13:18:50;-21564.94;;;15.68;38.21
7337;BME280;54510;42.016;23.098;2022-11-25T13:21:17;-21568.25;;;15.80;38.04
7337;BME280;54510;42.016;23.098;2022-11-25T13:23:56;-21564.38;;;15.66;38.27
7337;BME280;54510;42.016;23.098;2022-11-25T13:26:35;-21561.06;;;15.54;38.84
7337;BME280;54510;42.016;23.098;2022-11-25T13:31:59;-21567.41;;;15.77;38.11
7337;BME280;54510;42.016;23.098;2022-11-25T13:34:35;-21567.81;;;15.78;38.23
7337;BME280;54510;42.016;23.098;2022-11-25T13:40:30;-21574.44;;;16.03;37.61
7337;BME280;54510;42.016;23.098;2022-11-25T13:42:57;-21578.16;;;16.16;37.45
7337;BME280;54510;42.016;23.098;2022-11-25T13:47:53;-21585.47;;;16.43;36.66
7337;BME280;54510;42.016;23.098;2022-11-25T13:50:22;-21571.28;;;15.91;37.68
7337;BME280;54510;42.016;23.098;2022-11-25T13:53:00;-21571.81;;;15.93;37.13
7337;BME280;54510;42.016;23.098;2022-11-25T13:55:40;-21565.34;;;15.69;37.76
7337;BME280;54510;42.016;23.098;2022-11-25T14:06:07;-21566.59;;;15.74;37.54
7337;BME280;54510;42.016;23.098;2022-11-25T14:08:43;-21565.88;;;15.71;37.82
7337;BME280;54510;42.016;23.098;2022-11-25T14:25:46;-21542.56;;;14.86;38.33
7337;BME280;54510;42.016;23.098;2022-11-25T14:28:38;-21559.81;;;15.49;37.47
7337;BME280;54510;42.016;23.098;2022-11-25T14:31:10;-21566.72;;;15.74;36.64
7337;BME280;54510;42.016;23.098;2022-11-25T14:34:04;-21569.88;;;15.86;36.84
7337;BME280;54510;42.016;23.098;2022-11-25T14:36:40;-21575.41;;;16.06;36.62
7337;BME280;54510;42.016;23.098;2022-11-25T14:39:17;-21570.44;;;15.88;36.35
7337;BME280;54510;42.016;23.098;2022-11-25T14:42:00;-21563.69;;;15.63;36.92
7337;BME280;54510;42.016;23.098;2022-11-25T14:44:44;-21560.78;;;15.53;37.52
7337;BME280;54510;42.016;23.098;2022-11-25T14:47:10;-21564.25;;;15.65;36.98
7337;BME280;54510;42.016;23.098;2022-11-25T14:49:43;-21550.56;;;15.15;37.72
7337;BME280;54510;42.016;23.098;2022-11-25T14:52:09;-21550.56;;;15.15;37.79
7337;BME280;54510;42.016;23.098;2022-11-25T14:54:43;-21549.19;;;15.10;38.16
7337;BME280;54510;42.016;23.098;2022-11-25T14:57:09;-21560.50;;;15.52;38.11
7337;BME280;54510;42.016;23.098;2022-11-25T14:59:36;-21566.31;;;15.73;37.66
7337;BME280;54510;42.016;23.098;2022-11-25T15:02:02;-21562.72;;;15.60;37.68
7337;BME280;54510;42.016;23.098;2022-11-25T15:04:31;-21549.59;;;15.12;38.17
7337;BME280;54510;42.016;23.098;2022-11-25T15:06:58;-21550.56;;;15.15;38.48
7337;BME280;54510;42.016;23.098;2022-11-25T15:09:37;-21546.97;;;15.02;38.39
7337;BME280;54510;42.016;23.098;2022-11-25T15:12:11;-21541.59;;;14.82;39.01
7337;BME280;54510;42.016;23.098;2022-11-25T15:14:40;-21552.50;;;15.22;38.47